sensor_id;sensor_type;location;lat;lon;timestamp;temperature;humidity
57030;DHT22;42920;45.306;20.448;2024-02-15T00:01:41;128.90;2252.80
57030;DHT22;42920;45.306;20.448;2024-02-15T00:04:07;128.60;2252.80
57030;DHT22;42920;45.306;20.448;2024-02-15T00:06:33;128.70;2252.80
57030;DHT22;42920;45.306;20.448;2024-02-15T00:08:58;128.70;2252.80
57030;DHT22;42920;45.306;20.448;2024-02-15T00:11:24;128.80;2252.80
57030;DHT22;42920;45.306;20.448;2024-02-15T00:13:49;153.60;2252.80
57030;DHT22;42920;45.306;20.448;2024-02-15T00:16:15;153.60;2252.80
57030;DHT22;42920;45.306;20.448;2024-02-15T00:18:41;128.90;2252.80
57030;DHT22;42920;45.306;20.448;2024-02-15T00:21:06;128.90;2252.80
57030;DHT22;42920;45.306;20.448;2024-02-15T00:23:32;128.60;2252.80
57030;DHT22;42920;45.306;20.448;2024-02-15T00:25:58;128.20;2252.80
57030;DHT22;42920;45.306;20.448;2024-02-15T00:28:23;128.00;2252.80
57030;DHT22;42920;45.306;20.448;2024-02-15T00:30:49;128.20;2252.80
57030;DHT22;42920;45.306;20.448;2024-02-15T00:33:15;128.30;2252.80
57030;DHT22;42920;45.306;20.448;2024-02-15T00:35:42;128.00;2252.80
57030;DHT22;42920;45.306;20.448;2024-02-15T00:38:07;128.10;2252.80
57030;DHT22;42920;45.306;20.448;2024-02-15T00:40:33;128.00;2252.80
57030;DHT22;42920;45.306;20.448;2024-02-15T00:42:58;128.10;2252.80
57030;DHT22;42920;45.306;20.448;2024-02-15T00:45:24;103.30;2227.20
57030;DHT22;42920;45.306;20.448;2024-02-15T00:47:50;128.00;2252.80
57030;DHT22;42920;45.306;20.448;2024-02-15T00:50:15;103.30;2227.20
57030;DHT22;42920;45.306;20.448;2024-02-15T00:52:41;103.00;2227.20
57030;DHT22;42920;45.306;20.448;2024-02-15T00:55:07;102.70;2227.20
57030;DHT22;42920;45.306;20.448;2024-02-15T00:57:32;102.70;2227.20
57030;DHT22;42920;45.306;20.448;2024-02-15T00:59:58;102.70;2227.20
57030;DHT22;42920;45.306;20.448;2024-02-15T01:02:25;102.80;2227.20
57030;DHT22;42920;45.306;20.448;2024-02-15T01:04:51;102.90;2227.20
57030;DHT22;42920;45.306;20.448;2024-02-15T01:07:18;103.10;2227.20
57030;DHT22;42920;45.306;20.448;2024-02-15T01:09:44;102.80;2227.20
57030;DHT22;42920;45.306;20.448;2024-02-15T01:12:10;103.10;2227.20
57030;DHT22;42920;45.306;20.448;2024-02-15T01:14:36;103.30;2227.20
57030;DHT22;42920;45.306;20.448;2024-02-15T01:17:02;103.30;2227.20
57030;DHT22;42920;45.306;20.448;2024-02-15T01:19:27;128.10;2252.80
57030;DHT22;42920;45.306;20.448;2024-02-15T01:21:53;128.20;2252.80
57030;DHT22;42920;45.306;20.448;2024-02-15T01:24:19;128.20;2252.80
57030;DHT22;42920;45.306;20.448;2024-02-15T01:26:44;128.30;2252.80
57030;DHT22;42920;45.306;20.448;2024-02-15T01:29:10;128.40;2252.80
57030;DHT22;42920;45.306;20.448;2024-02-15T01:31:37;128.50;2252.80
57030;DHT22;42920;45.306;20.448;2024-02-15T01:34:04;128.50;2252.80
57030;DHT22;42920;45.306;20.448;2024-02-15T01:36:29;128.50;2252.80
57030;DHT22;42920;45.306;20.448;2024-02-15T01:38:56;128.50;2252.80
57030;DHT22;42920;45.306;20.448;2024-02-15T01:41:21;128.50;2252.80
57030;DHT22;42920;45.306;20.448;2024-02-15T01:43:47;128.60;2252.80
57030;DHT22;42920;45.306;20.448;2024-02-15T01:46:15;128.60;2252.80
57030;DHT22;42920;45.306;20.448;2024-02-15T01:48:41;128.70;2252.80
57030;DHT22;42920;45.306;20.448;2024-02-15T01:51:07;128.60;2252.80
57030;DHT22;42920;45.306;20.448;2024-02-15T01:53:33;128.20;2252.80
57030;DHT22;42920;45.306;20.448;2024-02-15T01:55:59;103.30;2227.20
57030;DHT22;42920;45.306;20.448;2024-02-15T01:58:25;103.30;2227.20
57030;DHT22;42920;45.306;20.448;2024-02-15T02:00:52;103.30;2227.20
57030;DHT22;42920;45.306;20.448;2024-02-15T02:03:19;103.30;2227.20
57030;DHT22;42920;45.306;20.448;2024-02-15T02:05:46;103.30;2227.20
57030;DHT22;42920;45.306;20.448;2024-02-15T02:08:12;128.50;2252.80
57030;DHT22;42920;45.306;20.448;2024-02-15T02:10:41;103.10;2227.20
57030;DHT22;42920;45.306;20.448;2024-02-15T02:13:08;102.70;2227.20
57030;DHT22;42920;45.306;20.448;2024-02-15T02:15:33;102.50;2227.20
57030;DHT22;42920;45.306;20.448;2024-02-15T02:18:03;102.70;2227.20
57030;DHT22;42920;45.306;20.448;2024-02-15T02:20:32;77.60;2227.20
57030;DHT22;42920;45.306;20.448;2024-02-15T02:23:01;102.40;2227.20
57030;DHT22;42920;45.306;20.448;2024-02-15T02:25:32;77.70;2227.20
57030;DHT22;42920;45.306;20.448;2024-02-15T02:27:59;77.70;2227.20
57030;DHT22;42920;45.306;20.448;2024-02-15T02:30:25;77.70;2227.20
57030;DHT22;42920;45.306;20.448;2024-02-15T02:32:57;77.60;2227.20
57030;DHT22;42920;45.306;20.448;2024-02-15T02:35:24;77.50;2227.20
57030;DHT22;42920;45.306;20.448;2024-02-15T02:37:50;77.70;2227.20
57030;DHT22;42920;45.306;20.448;2024-02-15T02:40:15;77.50;2227.20
57030;DHT22;42920;45.306;20.448;2024-02-15T02:42:54;77.20;2227.20
57030;DHT22;42920;45.306;20.448;2024-02-15T02:45:25;77.00;2227.20
57030;DHT22;42920;45.306;20.448;2024-02-15T02:47:54;77.00;2227.20
57030;DHT22;42920;45.306;20.448;2024-02-15T02:50:20;77.30;2227.20
57030;DHT22;42920;45.306;20.448;2024-02-15T02:52:45;102.40;2227.20
57030;DHT22;42920;45.306;20.448;2024-02-15T02:55:13;77.40;2227.20
57030;DHT22;42920;45.306;20.448;2024-02-15T02:57:39;77.20;2227.20
57030;DHT22;42920;45.306;20.448;2024-02-15T03:00:05;76.90;2227.20
57030;DHT22;42920;45.306;20.448;2024-02-15T03:02:38;76.80;2227.20
57030;DHT22;42920;45.306;20.448;2024-02-15T03:05:04;76.90;2227.20
57030;DHT22;42920;45.306;20.448;2024-02-15T03:07:33;76.90;2227.20
57030;DHT22;42920;45.306;20.448;2024-02-15T03:10:00;76.90;2227.20
57030;DHT22;42920;45.306;20.448;2024-02-15T03:12:25;77.00;2227.20
57030;DHT22;42920;45.306;20.448;2024-02-15T03:14:52;76.90;2227.20
57030;DHT22;42920;45.306;20.448;2024-02-15T03:17:17;77.00;2227.20
57030;DHT22;42920;45.306;20.448;2024-02-15T03:19:43;77.20;2227.20
57030;DHT22;42920;45.306;20.448;2024-02-15T03:22:09;77.40;2227.20
57030;DHT22;42920;45.306;20.448;2024-02-15T03:24:34;77.40;2227.20
57030;DHT22;42920;45.306;20.448;2024-02-15T03:27:00;77.40;2227.20
57030;DHT22;42920;45.306;20.448;2024-02-15T03:29:25;77.40;2227.20
57030;DHT22;42920;45.306;20.448;2024-02-15T03:31:51;77.40;2227.20
57030;DHT22;42920;45.306;20.448;2024-02-15T03:34:19;77.40;2227.20
57030;DHT22;42920;45.306;20.448;2024-02-15T03:36:47;77.70;2227.20
57030;DHT22;42920;45.306;20.448;2024-02-15T03:39:16;102.40;2227.20
57030;DHT22;42920;45.306;20.448;2024-02-15T03:41:42;102.50;2227.20
57030;DHT22;42920;45.306;20.448;2024-02-15T03:44:11;102.70;2227.20
57030;DHT22;42920;45.306;20.448;2024-02-15T03:46:37;102.80;2227.20
57030;DHT22;42920;45.306;20.448;2024-02-15T03:49:02;102.90;2227.20
57030;DHT22;42920;45.306;20.448;2024-02-15T03:51:28;103.00;2227.20
57030;DHT22;42920;45.306;20.448;2024-02-15T03:53:54;103.10;2227.20
57030;DHT22;42920;45.306;20.448;2024-02-15T03:56:20;103.00;2227.20
57030;DHT22;42920;45.306;20.448;2024-02-15T03:58:48;103.00;2227.20
57030;DHT22;42920;45.306;20.448;2024-02-15T04:01:16;102.90;2227.20
57030;DHT22;42920;45.306;20.448;2024-02-15T04:03:41;102.90;2227.20
57030;DHT22;42920;45.306;20.448;2024-02-15T04:06:07;102.90;2227.20
57030;DHT22;42920;45.306;20.448;2024-02-15T04:08:33;103.00;2227.20
57030;DHT22;42920;45.306;20.448;2024-02-15T04:10:59;103.00;2227.20
57030;DHT22;42920;45.306;20.448;2024-02-15T04:13:24;103.10;2227.20
57030;DHT22;42920;45.306;20.448;2024-02-15T04:15:50;103.20;2227.20
57030;DHT22;42920;45.306;20.448;2024-02-15T04:18:18;103.20;2227.20
57030;DHT22;42920;45.306;20.448;2024-02-15T04:20:44;103.30;2227.20
57030;DHT22;42920;45.306;20.448;2024-02-15T04:23:12;103.20;2227.20
57030;DHT22;42920;45.306;20.448;2024-02-15T04:25:38;102.90;2227.20
57030;DHT22;42920;45.306;20.448;2024-02-15T04:28:04;102.90;2227.20
57030;DHT22;42920;45.306;20.448;2024-02-15T04:30:30;102.70;2227.20
57030;DHT22;42920;45.306;20.448;2024-02-15T04:32:56;77.70;2227.20
57030;DHT22;42920;45.306;20.448;2024-02-15T04:35:21;77.30;2227.20
57030;DHT22;42920;45.306;20.448;2024-02-15T04:37:47;77.10;2227.20
57030;DHT22;42920;45.306;20.448;2024-02-15T04:40:14;77.10;2227.20
57030;DHT22;42920;45.306;20.448;2024-02-15T04:42:40;77.10;2227.20
57030;DHT22;42920;45.306;20.448;2024-02-15T04:45:08;77.10;2227.20
57030;DHT22;42920;45.306;20.448;2024-02-15T04:47:36;77.10;2227.20
57030;DHT22;42920;45.306;20.448;2024-02-15T04:50:02;77.20;2227.20
57030;DHT22;42920;45.306;20.448;2024-02-15T04:52:28;77.10;2227.20
57030;DHT22;42920;45.306;20.448;2024-02-15T04:54:53;77.30;2227.20
57030;DHT22;42920;45.306;20.448;2024-02-15T04:57:20;77.10;2227.20
57030;DHT22;42920;45.306;20.448;2024-02-15T04:59:45;77.00;2227.20
57030;DHT22;42920;45.306;20.448;2024-02-15T05:02:14;76.90;2227.20
57030;DHT22;42920;45.306;20.448;2024-02-15T05:04:39;76.90;2227.20
57030;DHT22;42920;45.306;20.448;2024-02-15T05:07:08;77.10;2227.20
57030;DHT22;42920;45.306;20.448;2024-02-15T05:09:33;77.00;2227.20
57030;DHT22;42920;45.306;20.448;2024-02-15T05:12:00;76.90;2227.20
57030;DHT22;42920;45.306;20.448;2024-02-15T05:14:27;76.80;2227.20
57030;DHT22;42920;45.306;20.448;2024-02-15T05:16:53;76.90;2227.20
57030;DHT22;42920;45.306;20.448;2024-02-15T05:19:19;77.10;2227.20
57030;DHT22;42920;45.306;20.448;2024-02-15T05:21:45;77.30;2227.20
57030;DHT22;42920;45.306;20.448;2024-02-15T05:24:17;77.30;2227.20
57030;DHT22;42920;45.306;20.448;2024-02-15T05:26:43;77.30;2227.20
57030;DHT22;42920;45.306;20.448;2024-02-15T05:29:10;77.30;2227.20
57030;DHT22;42920;45.306;20.448;2024-02-15T05:31:36;77.40;2227.20
57030;DHT22;42920;45.306;20.448;2024-02-15T05:34:04;77.40;2227.20
57030;DHT22;42920;45.306;20.448;2024-02-15T05:36:30;77.50;2227.20
57030;DHT22;42920;45.306;20.448;2024-02-15T05:38:56;77.40;2227.20
57030;DHT22;42920;45.306;20.448;2024-02-15T05:41:22;77.40;2227.20
57030;DHT22;42920;45.306;20.448;2024-02-15T05:43:48;77.30;2227.20
57030;DHT22;42920;45.306;20.448;2024-02-15T05:46:14;77.40;2227.20
57030;DHT22;42920;45.306;20.448;2024-02-15T05:48:40;77.50;2227.20
57030;DHT22;42920;45.306;20.448;2024-02-15T05:51:06;77.60;2227.20
57030;DHT22;42920;45.306;20.448;2024-02-15T05:53:32;77.50;2227.20
57030;DHT22;42920;45.306;20.448;2024-02-15T05:56:04;77.50;2227.20
57030;DHT22;42920;45.306;20.448;2024-02-15T05:58:31;77.60;2227.20
57030;DHT22;42920;45.306;20.448;2024-02-15T06:00:58;102.40;2227.20
57030;DHT22;42920;45.306;20.448;2024-02-15T06:03:30;102.50;2227.20
57030;DHT22;42920;45.306;20.448;2024-02-15T06:05:57;102.50;2227.20
57030;DHT22;42920;45.306;20.448;2024-02-15T06:08:26;102.40;2227.20
57030;DHT22;42920;45.306;20.448;2024-02-15T06:10:52;77.70;2227.20
57030;DHT22;42920;45.306;20.448;2024-02-15T06:13:18;77.60;2227.20
57030;DHT22;42920;45.306;20.448;2024-02-15T06:15:44;102.60;2227.20
57030;DHT22;42920;45.306;20.448;2024-02-15T06:18:12;102.60;2227.20
57030;DHT22;42920;45.306;20.448;2024-02-15T06:20:40;102.60;2227.20
57030;DHT22;42920;45.306;20.448;2024-02-15T06:23:06;102.50;2227.20
57030;DHT22;42920;45.306;20.448;2024-02-15T06:25:33;102.50;2227.20
57030;DHT22;42920;45.306;20.448;2024-02-15T06:28:00;102.60;2227.20
57030;DHT22;42920;45.306;20.448;2024-02-15T06:30:28;102.90;2227.20
57030;DHT22;42920;45.306;20.448;2024-02-15T06:33:12;103.20;2227.20
57030;DHT22;42920;45.306;20.448;2024-02-15T06:35:56;128.10;2252.80
57030;DHT22;42920;45.306;20.448;2024-02-15T06:38:41;128.50;2252.80
57030;DHT22;42920;45.306;20.448;2024-02-15T06:41:24;128.90;2252.80
57030;DHT22;42920;45.306;20.448;2024-02-15T06:43:51;153.80;2252.80
57030;DHT22;42920;45.306;20.448;2024-02-15T06:46:17;154.00;2252.80
57030;DHT22;42920;45.306;20.448;2024-02-15T06:48:44;154.20;2252.80
57030;DHT22;42920;45.306;20.448;2024-02-15T06:51:13;154.50;2252.80
57030;DHT22;42920;45.306;20.448;2024-02-15T06:53:40;154.50;2252.80
57030;DHT22;42920;45.306;20.448;2024-02-15T06:56:08;154.50;2252.80
57030;DHT22;42920;45.306;20.448;2024-02-15T06:58:34;154.50;2252.80
57030;DHT22;42920;45.306;20.448;2024-02-15T07:01:00;179.40;2252.80
57030;DHT22;42920;45.306;20.448;2024-02-15T07:03:27;179.70;2252.80
57030;DHT22;42920;45.306;20.448;2024-02-15T07:05:55;179.80;2252.80
57030;DHT22;42920;45.306;20.448;2024-02-15T07:08:21;179.90;2252.80
57030;DHT22;42920;45.306;20.448;2024-02-15T07:10:48;180.00;2252.80
57030;DHT22;42920;45.306;20.448;2024-02-15T07:13:14;204.80;2252.80
57030;DHT22;42920;45.306;20.448;2024-02-15T07:15:39;205.00;2252.80
57030;DHT22;42920;45.306;20.448;2024-02-15T07:18:06;205.10;2252.80
57030;DHT22;42920;45.306;20.448;2024-02-15T07:20:34;205.00;2252.80
57030;DHT22;42920;45.306;20.448;2024-02-15T07:22:59;205.10;2252.80
57030;DHT22;42920;45.306;20.448;2024-02-15T07:25:25;205.00;2252.80
57030;DHT22;42920;45.306;20.448;2024-02-15T07:27:51;204.80;2252.80
57030;DHT22;42920;45.306;20.448;2024-02-15T07:30:18;204.90;2252.80
57030;DHT22;42920;45.306;20.448;2024-02-15T07:32:44;205.00;2252.80
57030;DHT22;42920;45.306;20.448;2024-02-15T07:35:09;205.20;2252.80
57030;DHT22;42920;45.306;20.448;2024-02-15T07:37:35;205.30;2252.80
57030;DHT22;42920;45.306;20.448;2024-02-15T07:40:01;205.20;2252.80
57030;DHT22;42920;45.306;20.448;2024-02-15T07:42:29;205.20;2252.80
57030;DHT22;42920;45.306;20.448;2024-02-15T07:44:54;205.40;2252.80
57030;DHT22;42920;45.306;20.448;2024-02-15T07:47:21;205.60;2252.80
57030;DHT22;42920;45.306;20.448;2024-02-15T07:49:50;205.70;2252.80
57030;DHT22;42920;45.306;20.448;2024-02-15T07:52:15;205.70;2252.80
57030;DHT22;42920;45.306;20.448;2024-02-15T07:54:41;205.60;2252.80
57030;DHT22;42920;45.306;20.448;2024-02-15T07:57:06;205.60;2252.80
57030;DHT22;42920;45.306;20.448;2024-02-15T07:59:32;205.70;2252.80
57030;DHT22;42920;45.306;20.448;2024-02-15T08:01:58;230.40;2252.80
57030;DHT22;42920;45.306;20.448;2024-02-15T08:04:23;230.60;2252.80
57030;DHT22;42920;45.306;20.448;2024-02-15T08:06:50;230.80;2252.80
57030;DHT22;42920;45.306;20.448;2024-02-15T08:09:18;230.90;2252.80
57030;DHT22;42920;45.306;20.448;2024-02-15T08:11:47;230.90;2252.80
57030;DHT22;42920;45.306;20.448;2024-02-15T08:14:13;231.10;2252.80
57030;DHT22;42920;45.306;20.448;2024-02-15T08:16:38;231.20;2252.80
57030;DHT22;42920;45.306;20.448;2024-02-15T08:19:05;231.20;2252.80
57030;DHT22;42920;45.306;20.448;2024-02-15T08:21:32;231.10;2252.80
57030;DHT22;42920;45.306;20.448;2024-02-15T08:24:02;231.10;2252.80
57030;DHT22;42920;45.306;20.448;2024-02-15T08:26:37;231.20;2252.80
57030;DHT22;42920;45.306;20.448;2024-02-15T08:29:09;231.10;2252.80
57030;DHT22;42920;45.306;20.448;2024-02-15T08:31:35;231.20;2252.80
57030;DHT22;42920;45.306;20.448;2024-02-15T08:34:01;231.00;2252.80
57030;DHT22;42920;45.306;20.448;2024-02-15T08:36:27;231.20;2252.80
57030;DHT22;42920;45.306;20.448;2024-02-15T08:38:52;256.10;2252.80
57030;DHT22;42920;45.306;20.448;2024-02-15T08:41:19;256.20;2252.80
57030;DHT22;42920;45.306;20.448;2024-02-15T08:43:46;256.30;2252.80
57030;DHT22;42920;45.306;20.448;2024-02-15T08:46:14;256.40;2252.80
57030;DHT22;42920;45.306;20.448;2024-02-15T08:48:39;256.60;2252.80
57030;DHT22;42920;45.306;20.448;2024-02-15T08:51:06;256.80;2252.80
57030;DHT22;42920;45.306;20.448;2024-02-15T08:53:36;281.60;2278.40
57030;DHT22;42920;45.306;20.448;2024-02-15T08:56:03;281.80;2278.40
57030;DHT22;42920;45.306;20.448;2024-02-15T08:58:28;282.00;2278.40
57030;DHT22;42920;45.306;20.448;2024-02-15T09:00:58;282.00;2278.40
57030;DHT22;42920;45.306;20.448;2024-02-15T09:03:24;282.00;2278.40
57030;DHT22;42920;45.306;20.448;2024-02-15T09:05:50;282.00;2278.40
57030;DHT22;42920;45.306;20.448;2024-02-15T09:08:16;282.10;2278.40
57030;DHT22;42920;45.306;20.448;2024-02-15T09:10:46;282.10;2278.40
57030;DHT22;42920;45.306;20.448;2024-02-15T09:13:12;282.00;2278.40
57030;DHT22;42920;45.306;20.448;2024-02-15T09:15:37;282.10;2150.40
57030;DHT22;42920;45.306;20.448;2024-02-15T09:18:04;282.20;2150.40
57030;DHT22;42920;45.306;20.448;2024-02-15T09:20:30;282.10;2278.40
57030;DHT22;42920;45.306;20.448;2024-02-15T09:22:57;282.30;2099.20
57030;DHT22;42920;45.306;20.448;2024-02-15T09:25:23;282.50;2099.20
57030;DHT22;42920;45.306;20.448;2024-02-15T09:27:49;307.30;2099.20
57030;DHT22;42920;45.306;20.448;2024-02-15T09:30:15;307.30;2073.60
57030;DHT22;42920;45.306;20.448;2024-02-15T09:32:41;307.60;2124.80
57030;DHT22;42920;45.306;20.448;2024-02-15T09:35:07;307.70;2048.00
57030;DHT22;42920;45.306;20.448;2024-02-15T09:37:34;307.60;2073.60
57030;DHT22;42920;45.306;20.448;2024-02-15T09:40:00;307.70;2073.60
57030;DHT22;42920;45.306;20.448;2024-02-15T09:42:31;307.70;2073.60
57030;DHT22;42920;45.306;20.448;2024-02-15T09:45:00;308.00;2150.40
57030;DHT22;42920;45.306;20.448;2024-02-15T09:47:30;308.00;2124.80
57030;DHT22;42920;45.306;20.448;2024-02-15T09:49:59;307.90;2176.00
57030;DHT22;42920;45.306;20.448;2024-02-15T09:52:25;307.80;2099.20
57030;DHT22;42920;45.306;20.448;2024-02-15T09:54:50;308.10;2176.00
57030;DHT22;42920;45.306;20.448;2024-02-15T09:57:17;333.00;2073.60
57030;DHT22;42920;45.306;20.448;2024-02-15T09:59:44;333.30;2048.00
57030;DHT22;42920;45.306;20.448;2024-02-15T10:02:10;333.50;2022.40
57030;DHT22;42920;45.306;20.448;2024-02-15T10:04:41;358.40;1920.00
57030;DHT22;42920;45.306;20.448;2024-02-15T10:07:08;358.50;1894.40
57030;DHT22;42920;45.306;20.448;2024-02-15T10:09:34;359.00;1868.80
57030;DHT22;42920;45.306;20.448;2024-02-15T10:12:02;359.00;1868.80
57030;DHT22;42920;45.306;20.448;2024-02-15T10:14:29;359.30;1843.20
57030;DHT22;42920;45.306;20.448;2024-02-15T10:16:55;384.30;2150.40
57030;DHT22;42920;45.306;20.448;2024-02-15T10:19:21;384.60;1740.80
57030;DHT22;42920;45.306;20.448;2024-02-15T10:21:51;384.10;1817.60
57030;DHT22;42920;45.306;20.448;2024-02-15T10:24:18;384.20;1792.00
57030;DHT22;42920;45.306;20.448;2024-02-15T10:26:45;384.70;1766.40
57030;DHT22;42920;45.306;20.448;2024-02-15T10:29:13;384.80;1740.80
57030;DHT22;42920;45.306;20.448;2024-02-15T10:31:51;409.60;1740.80
57030;DHT22;42920;45.306;20.448;2024-02-15T10:34:17;410.00;1689.60
57030;DHT22;42920;45.306;20.448;2024-02-15T10:36:44;410.10;1689.60
57030;DHT22;42920;45.306;20.448;2024-02-15T10:39:12;410.50;1638.40
57030;DHT22;42920;45.306;20.448;2024-02-15T10:41:45;435.30;1587.20
57030;DHT22;42920;45.306;20.448;2024-02-15T10:44:15;435.50;1561.60
57030;DHT22;42920;45.306;20.448;2024-02-15T10:46:41;435.40;1587.20
57030;DHT22;42920;45.306;20.448;2024-02-15T10:49:07;435.80;1536.00
57030;DHT22;42920;45.306;20.448;2024-02-15T10:51:32;435.80;1561.60
57030;DHT22;42920;45.306;20.448;2024-02-15T10:54:01;436.10;1536.00
57030;DHT22;42920;45.306;20.448;2024-02-15T10:56:32;436.10;1484.80
57030;DHT22;42920;45.306;20.448;2024-02-15T10:59:02;460.90;1484.80
57030;DHT22;42920;45.306;20.448;2024-02-15T11:01:30;461.10;1510.40
57030;DHT22;42920;45.306;20.448;2024-02-15T11:03:59;461.20;1484.80
57030;DHT22;42920;45.306;20.448;2024-02-15T11:06:28;461.40;1459.20
57030;DHT22;42920;45.306;20.448;2024-02-15T11:08:55;461.10;1484.80
57030;DHT22;42920;45.306;20.448;2024-02-15T11:11:21;461.60;1459.20
57030;DHT22;42920;45.306;20.448;2024-02-15T11:13:47;461.50;1459.20
57030;DHT22;42920;45.306;20.448;2024-02-15T11:19:00;461.10;1484.80
57030;DHT22;42920;45.306;20.448;2024-02-15T11:24:26;461.40;1510.40
57030;DHT22;42920;45.306;20.448;2024-02-15T11:27:00;461.10;1484.80
57030;DHT22;42920;45.306;20.448;2024-02-15T11:35:08;436.10;1459.20
57030;DHT22;42920;45.306;20.448;2024-02-15T11:40:24;436.10;1484.80
57030;DHT22;42920;45.306;20.448;2024-02-15T11:45:26;435.70;1510.40
57030;DHT22;42920;45.306;20.448;2024-02-15T11:47:55;460.90;1536.00
57030;DHT22;42920;45.306;20.448;2024-02-15T11:50:21;436.10;1484.80
57030;DHT22;42920;45.306;20.448;2024-02-15T11:52:48;435.60;1510.40
57030;DHT22;42920;45.306;20.448;2024-02-15T11:55:17;435.20;1561.60
57030;DHT22;42920;45.306;20.448;2024-02-15T11:58:00;435.50;1536.00
57030;DHT22;42920;45.306;20.448;2024-02-15T12:00:48;435.70;1536.00
57030;DHT22;42920;45.306;20.448;2024-02-15T12:03:32;436.10;1510.40
57030;DHT22;42920;45.306;20.448;2024-02-15T12:06:17;460.80;1536.00
57030;DHT22;42920;45.306;20.448;2024-02-15T12:09:01;461.20;1510.40
57030;DHT22;42920;45.306;20.448;2024-02-15T12:11:45;461.00;1484.80
57030;DHT22;42920;45.306;20.448;2024-02-15T12:14:29;461.10;1484.80
57030;DHT22;42920;45.306;20.448;2024-02-15T12:17:14;460.80;1510.40
57030;DHT22;42920;45.306;20.448;2024-02-15T12:20:02;436.00;1484.80
57030;DHT22;42920;45.306;20.448;2024-02-15T12:22:36;460.80;1510.40
57030;DHT22;42920;45.306;20.448;2024-02-15T12:25:06;461.10;1536.00
57030;DHT22;42920;45.306;20.448;2024-02-15T12:27:40;460.90;1510.40
57030;DHT22;42920;45.306;20.448;2024-02-15T12:30:06;436.00;1510.40
57030;DHT22;42920;45.306;20.448;2024-02-15T12:32:32;435.90;1536.00
57030;DHT22;42920;45.306;20.448;2024-02-15T12:35:14;460.80;1510.40
57030;DHT22;42920;45.306;20.448;2024-02-15T12:37:45;460.80;1510.40
57030;DHT22;42920;45.306;20.448;2024-02-15T12:40:11;460.90;1510.40
57030;DHT22;42920;45.306;20.448;2024-02-15T12:42:41;460.90;1510.40
57030;DHT22;42920;45.306;20.448;2024-02-15T12:45:14;460.90;1510.40
57030;DHT22;42920;45.306;20.448;2024-02-15T12:47:40;436.10;1536.00
57030;DHT22;42920;45.306;20.448;2024-02-15T12:50:13;460.90;1536.00
57030;DHT22;42920;45.306;20.448;2024-02-15T12:52:39;460.90;1510.40
57030;DHT22;42920;45.306;20.448;2024-02-15T12:55:09;461.10;1510.40
57030;DHT22;42920;45.306;20.448;2024-02-15T12:57:35;461.00;1510.40
57030;DHT22;42920;45.306;20.448;2024-02-15T13:00:01;460.80;1536.00
57030;DHT22;42920;45.306;20.448;2024-02-15T13:02:38;436.10;1484.80
57030;DHT22;42920;45.306;20.448;2024-02-15T13:05:04;436.10;1484.80
57030;DHT22;42920;45.306;20.448;2024-02-15T13:07:30;436.10;1484.80
57030;DHT22;42920;45.306;20.448;2024-02-15T13:09:56;436.00;1510.40
57030;DHT22;42920;45.306;20.448;2024-02-15T13:12:22;436.10;1561.60
57030;DHT22;42920;45.306;20.448;2024-02-15T13:14:48;435.90;1561.60
57030;DHT22;42920;45.306;20.448;2024-02-15T13:17:15;435.90;1536.00
57030;DHT22;42920;45.306;20.448;2024-02-15T13:19:45;435.70;1561.60
57030;DHT22;42920;45.306;20.448;2024-02-15T13:22:12;435.50;1561.60
57030;DHT22;42920;45.306;20.448;2024-02-15T13:24:37;435.30;1561.60
57030;DHT22;42920;45.306;20.448;2024-02-15T13:27:04;435.20;1587.20
57030;DHT22;42920;45.306;20.448;2024-02-15T13:29:29;435.20;1612.80
57030;DHT22;42920;45.306;20.448;2024-02-15T13:31:57;435.20;1612.80
57030;DHT22;42920;45.306;20.448;2024-02-15T13:34:23;410.40;1638.40
57030;DHT22;42920;45.306;20.448;2024-02-15T13:36:49;410.20;1638.40
57030;DHT22;42920;45.306;20.448;2024-02-15T13:39:15;410.20;1638.40
57030;DHT22;42920;45.306;20.448;2024-02-15T13:41:40;410.20;1638.40
57030;DHT22;42920;45.306;20.448;2024-02-15T13:44:06;410.20;1664.00
57030;DHT22;42920;45.306;20.448;2024-02-15T13:46:32;410.00;1664.00
57030;DHT22;42920;45.306;20.448;2024-02-15T13:48:57;409.70;1689.60
57030;DHT22;42920;45.306;20.448;2024-02-15T13:51:23;409.70;1715.20
57030;DHT22;42920;45.306;20.448;2024-02-15T13:53:49;409.70;1689.60
57030;DHT22;42920;45.306;20.448;2024-02-15T13:56:15;409.60;1689.60
57030;DHT22;42920;45.306;20.448;2024-02-15T13:58:41;409.60;1715.20
57030;DHT22;42920;45.306;20.448;2024-02-15T14:01:07;409.60;1715.20
57030;DHT22;42920;45.306;20.448;2024-02-15T14:03:33;409.60;1715.20
57030;DHT22;42920;45.306;20.448;2024-02-15T14:05:59;384.90;1689.60
57030;DHT22;42920;45.306;20.448;2024-02-15T14:08:25;384.80;1715.20
57030;DHT22;42920;45.306;20.448;2024-02-15T14:10:51;384.70;1715.20
57030;DHT22;42920;45.306;20.448;2024-02-15T14:13:16;384.60;1740.80
57030;DHT22;42920;45.306;20.448;2024-02-15T14:15:43;384.40;1740.80
57030;DHT22;42920;45.306;20.448;2024-02-15T14:18:10;384.30;1740.80
57030;DHT22;42920;45.306;20.448;2024-02-15T14:20:36;384.50;1766.40
57030;DHT22;42920;45.306;20.448;2024-02-15T14:23:02;384.90;1766.40
57030;DHT22;42920;45.306;20.448;2024-02-15T14:25:31;384.30;1740.80
57030;DHT22;42920;45.306;20.448;2024-02-15T14:27:57;384.30;1766.40
57030;DHT22;42920;45.306;20.448;2024-02-15T14:30:24;384.10;1792.00
57030;DHT22;42920;45.306;20.448;2024-02-15T14:33:08;384.00;1817.60
57030;DHT22;42920;45.306;20.448;2024-02-15T14:35:39;359.30;1817.60
57030;DHT22;42920;45.306;20.448;2024-02-15T14:38:06;359.20;1817.60
57030;DHT22;42920;45.306;20.448;2024-02-15T14:43:02;359.20;1843.20
57030;DHT22;42920;45.306;20.448;2024-02-15T14:45:33;359.20;1843.20
57030;DHT22;42920;45.306;20.448;2024-02-15T14:47:59;359.20;1843.20
57030;DHT22;42920;45.306;20.448;2024-02-15T14:50:25;359.10;1817.60
57030;DHT22;42920;45.306;20.448;2024-02-15T14:52:51;359.20;1843.20
57030;DHT22;42920;45.306;20.448;2024-02-15T14:55:20;359.20;1843.20
57030;DHT22;42920;45.306;20.448;2024-02-15T14:57:46;359.10;1868.80
57030;DHT22;42920;45.306;20.448;2024-02-15T15:00:12;359.20;1868.80